sensor_id;sensor_type;location;lat;lon;timestamp;temperature;humidity
14993;DHT22;7592;51.088;13.732;2022-10-16T00:03:52;15.30;99.90
14993;DHT22;7592;51.088;13.732;2022-10-16T00:08:45;15.30;99.90
14993;DHT22;7592;51.088;13.732;2022-10-16T00:13:39;15.10;99.90
14993;DHT22;7592;51.088;13.732;2022-10-16T00:18:32;14.90;99.90
14993;DHT22;7592;51.088;13.732;2022-10-16T00:23:24;14.80;99.90
14993;DHT22;7592;51.088;13.732;2022-10-16T00:28:19;14.60;99.90
14993;DHT22;7592;51.088;13.732;2022-10-16T00:33:11;14.50;99.90
14993;DHT22;7592;51.088;13.732;2022-10-16T00:38:04;14.40;99.90
14993;DHT22;7592;51.088;13.732;2022-10-16T00:42:56;14.40;99.90
14993;DHT22;7592;51.088;13.732;2022-10-16T00:47:49;14.40;99.90
14993;DHT22;7592;51.088;13.732;2022-10-16T00:52:47;14.40;99.90
14993;DHT22;7592;51.088;13.732;2022-10-16T00:57:42;14.40;99.90
14993;DHT22;7592;51.088;13.732;2022-10-16T01:02:36;14.50;99.90
14993;DHT22;7592;51.088;13.732;2022-10-16T01:07:56;14.60;99.90
14993;DHT22;7592;51.088;13.732;2022-10-16T01:13:07;14.70;99.90
14993;DHT22;7592;51.088;13.732;2022-10-16T01:18:30;14.80;99.90
14993;DHT22;7592;51.088;13.732;2022-10-16T01:28:19;15.00;99.90
14993;DHT22;7592;51.088;13.732;2022-10-16T01:33:19;15.10;99.90
14993;DHT22;7592;51.088;13.732;2022-10-16T01:44:04;15.40;99.90
14993;DHT22;7592;51.088;13.732;2022-10-16T01:48:58;15.60;99.90
14993;DHT22;7592;51.088;13.732;2022-10-16T01:53:54;15.70;99.90
14993;DHT22;7592;51.088;13.732;2022-10-16T01:58:52;15.80;99.90
14993;DHT22;7592;51.088;13.732;2022-10-16T02:03:46;15.90;99.90
14993;DHT22;7592;51.088;13.732;2022-10-16T02:08:42;15.80;99.90
14993;DHT22;7592;51.088;13.732;2022-10-16T02:13:45;15.80;99.90
14993;DHT22;7592;51.088;13.732;2022-10-16T02:18:39;15.90;99.90
14993;DHT22;7592;51.088;13.732;2022-10-16T02:28:45;16.00;99.90
14993;DHT22;7592;51.088;13.732;2022-10-16T02:33:40;16.10;99.90
14993;DHT22;7592;51.088;13.732;2022-10-16T02:38:35;16.10;99.90
14993;DHT22;7592;51.088;13.732;2022-10-16T02:43:28;16.10;99.90
14993;DHT22;7592;51.088;13.732;2022-10-16T02:48:21;16.10;99.90
14993;DHT22;7592;51.088;13.732;2022-10-16T02:53:14;16.20;99.90
14993;DHT22;7592;51.088;13.732;2022-10-16T02:58:08;16.10;99.90
14993;DHT22;7592;51.088;13.732;2022-10-16T03:03:01;16.10;99.90
14993;DHT22;7592;51.088;13.732;2022-10-16T03:07:53;16.00;99.90
14993;DHT22;7592;51.088;13.732;2022-10-16T03:12:45;15.90;99.90
14993;DHT22;7592;51.088;13.732;2022-10-16T03:17:38;15.80;99.90
14993;DHT22;7592;51.088;13.732;2022-10-16T03:22:31;15.80;99.90
14993;DHT22;7592;51.088;13.732;2022-10-16T03:27:23;15.60;99.90
14993;DHT22;7592;51.088;13.732;2022-10-16T03:32:16;15.50;99.90
14993;DHT22;7592;51.088;13.732;2022-10-16T03:37:09;15.30;99.90
14993;DHT22;7592;51.088;13.732;2022-10-16T03:42:02;15.20;99.90
14993;DHT22;7592;51.088;13.732;2022-10-16T03:46:55;15.10;99.90
14993;DHT22;7592;51.088;13.732;2022-10-16T03:51:47;15.10;99.90
14993;DHT22;7592;51.088;13.732;2022-10-16T03:56:39;15.00;99.90
14993;DHT22;7592;51.088;13.732;2022-10-16T04:01:32;14.90;99.90
14993;DHT22;7592;51.088;13.732;2022-10-16T04:06:25;14.80;99.90
14993;DHT22;7592;51.088;13.732;2022-10-16T04:11:17;14.90;99.90
14993;DHT22;7592;51.088;13.732;2022-10-16T04:16:10;14.90;99.90
14993;DHT22;7592;51.088;13.732;2022-10-16T04:21:06;14.90;99.90
14993;DHT22;7592;51.088;13.732;2022-10-16T04:26:00;14.80;99.90
14993;DHT22;7592;51.088;13.732;2022-10-16T04:30:52;14.80;99.90
14993;DHT22;7592;51.088;13.732;2022-10-16T04:35:45;14.90;99.90
14993;DHT22;7592;51.088;13.732;2022-10-16T04:40:38;14.90;99.90
14993;DHT22;7592;51.088;13.732;2022-10-16T04:45:31;14.90;99.90
14993;DHT22;7592;51.088;13.732;2022-10-16T04:50:24;14.90;99.90
14993;DHT22;7592;51.088;13.732;2022-10-16T04:55:30;14.70;99.90
14993;DHT22;7592;51.088;13.732;2022-10-16T05:00:22;14.70;99.90
14993;DHT22;7592;51.088;13.732;2022-10-16T05:05:15;14.80;99.90
14993;DHT22;7592;51.088;13.732;2022-10-16T05:10:07;14.90;99.90
14993;DHT22;7592;51.088;13.732;2022-10-16T05:15:00;14.90;99.90
14993;DHT22;7592;51.088;13.732;2022-10-16T05:19:52;14.90;99.90
14993;DHT22;7592;51.088;13.732;2022-10-16T05:24:45;15.00;99.90
14993;DHT22;7592;51.088;13.732;2022-10-16T05:29:38;15.00;99.90
14993;DHT22;7592;51.088;13.732;2022-10-16T05:34:30;14.90;99.90
14993;DHT22;7592;51.088;13.732;2022-10-16T05:39:23;14.90;99.90
14993;DHT22;7592;51.088;13.732;2022-10-16T05:44:15;14.80;99.90
14993;DHT22;7592;51.088;13.732;2022-10-16T05:49:08;14.80;99.90
14993;DHT22;7592;51.088;13.732;2022-10-16T05:54:33;14.80;99.90
14993;DHT22;7592;51.088;13.732;2022-10-16T05:59:50;14.90;99.90
14993;DHT22;7592;51.088;13.732;2022-10-16T06:05:03;15.00;99.90
14993;DHT22;7592;51.088;13.732;2022-10-16T06:09:57;15.30;99.90
14993;DHT22;7592;51.088;13.732;2022-10-16T06:14:49;15.60;99.90
14993;DHT22;7592;51.088;13.732;2022-10-16T06:19:43;15.80;99.90
14993;DHT22;7592;51.088;13.732;2022-10-16T06:24:35;15.80;99.90
14993;DHT22;7592;51.088;13.732;2022-10-16T06:29:28;16.00;99.90
14993;DHT22;7592;51.088;13.732;2022-10-16T06:34:21;16.30;99.90
14993;DHT22;7592;51.088;13.732;2022-10-16T06:39:14;16.50;99.90
14993;DHT22;7592;51.088;13.732;2022-10-16T06:44:07;16.70;99.90
14993;DHT22;7592;51.088;13.732;2022-10-16T06:49:00;16.90;99.90
14993;DHT22;7592;51.088;13.732;2022-10-16T06:53:54;17.30;99.90
14993;DHT22;7592;51.088;13.732;2022-10-16T06:58:56;17.60;99.90
14993;DHT22;7592;51.088;13.732;2022-10-16T07:03:48;18.00;99.90
14993;DHT22;7592;51.088;13.732;2022-10-16T07:08:42;18.20;99.90
14993;DHT22;7592;51.088;13.732;2022-10-16T07:13:37;18.00;99.90
14993;DHT22;7592;51.088;13.732;2022-10-16T07:18:30;17.70;99.90
14993;DHT22;7592;51.088;13.732;2022-10-16T07:23:24;17.70;99.90
14993;DHT22;7592;51.088;13.732;2022-10-16T07:28:17;17.90;99.90
14993;DHT22;7592;51.088;13.732;2022-10-16T07:33:10;18.10;99.90
14993;DHT22;7592;51.088;13.732;2022-10-16T07:38:03;18.10;99.90
14993;DHT22;7592;51.088;13.732;2022-10-16T07:43:03;18.10;99.90
14993;DHT22;7592;51.088;13.732;2022-10-16T07:47:58;18.00;99.90
14993;DHT22;7592;51.088;13.732;2022-10-16T07:52:51;18.00;99.90
14993;DHT22;7592;51.088;13.732;2022-10-16T07:57:44;18.10;99.90
14993;DHT22;7592;51.088;13.732;2022-10-16T08:02:36;18.00;99.90
14993;DHT22;7592;51.088;13.732;2022-10-16T08:07:29;18.10;99.90
14993;DHT22;7592;51.088;13.732;2022-10-16T08:12:21;18.30;99.90
14993;DHT22;7592;51.088;13.732;2022-10-16T08:17:14;18.80;99.90
14993;DHT22;7592;51.088;13.732;2022-10-16T08:22:07;19.10;99.90
14993;DHT22;7592;51.088;13.732;2022-10-16T08:27:00;19.00;99.90
14993;DHT22;7592;51.088;13.732;2022-10-16T08:31:55;18.80;99.90
14993;DHT22;7592;51.088;13.732;2022-10-16T08:36:47;19.20;99.90
14993;DHT22;7592;51.088;13.732;2022-10-16T10:43:43;28.20;99.90
14993;DHT22;7592;51.088;13.732;2022-10-16T10:49:01;27.70;99.90
14993;DHT22;7592;51.088;13.732;2022-10-16T11:04:49;26.80;99.90
14993;DHT22;7592;51.088;13.732;2022-10-16T11:10:21;27.20;99.90
14993;DHT22;7592;51.088;13.732;2022-10-16T11:15:34;27.30;99.90
14993;DHT22;7592;51.088;13.732;2022-10-16T11:20:44;29.40;99.90
14993;DHT22;7592;51.088;13.732;2022-10-16T11:25:43;30.00;99.90
14993;DHT22;7592;51.088;13.732;2022-10-16T11:46:31;26.90;99.90
14993;DHT22;7592;51.088;13.732;2022-10-16T11:51:45;26.20;99.90
14993;DHT22;7592;51.088;13.732;2022-10-16T11:56:53;26.20;99.90
14993;DHT22;7592;51.088;13.732;2022-10-16T12:02:27;26.10;99.90
14993;DHT22;7592;51.088;13.732;2022-10-16T12:07:39;26.00;99.90
14993;DHT22;7592;51.088;13.732;2022-10-16T12:12:39;26.20;99.90
14993;DHT22;7592;51.088;13.732;2022-10-16T12:17:36;26.20;99.90
14993;DHT22;7592;51.088;13.732;2022-10-16T12:22:31;25.90;99.90
14993;DHT22;7592;51.088;13.732;2022-10-16T12:27:36;25.80;99.90
14993;DHT22;7592;51.088;13.732;2022-10-16T12:32:34;25.70;99.90
14993;DHT22;7592;51.088;13.732;2022-10-16T12:37:53;25.60;99.90
14993;DHT22;7592;51.088;13.732;2022-10-16T12:42:59;25.50;99.90
14993;DHT22;7592;51.088;13.732;2022-10-16T12:47:55;25.60;99.90
14993;DHT22;7592;51.088;13.732;2022-10-16T12:52:48;25.90;99.90
14993;DHT22;7592;51.088;13.732;2022-10-16T13:15:40;25.00;99.90
14993;DHT22;7592;51.088;13.732;2022-10-16T13:26:09;24.70;99.90
14993;DHT22;7592;51.088;13.732;2022-10-16T13:31:21;24.40;99.90
14993;DHT22;7592;51.088;13.732;2022-10-16T13:36:44;24.20;99.90
14993;DHT22;7592;51.088;13.732;2022-10-16T13:41:38;24.00;99.90
14993;DHT22;7592;51.088;13.732;2022-10-16T13:46:32;23.70;99.90
14993;DHT22;7592;51.088;13.732;2022-10-16T13:51:27;23.40;99.90
14993;DHT22;7592;51.088;13.732;2022-10-16T13:56:22;23.40;99.90
14993;DHT22;7592;51.088;13.732;2022-10-16T14:01:20;23.60;99.90
14993;DHT22;7592;51.088;13.732;2022-10-16T14:06:21;23.80;99.90
14993;DHT22;7592;51.088;13.732;2022-10-16T14:17:53;23.90;99.90
14993;DHT22;7592;51.088;13.732;2022-10-16T14:22:46;23.60;99.90
14993;DHT22;7592;51.088;13.732;2022-10-16T14:27:38;23.40;99.90
14993;DHT22;7592;51.088;13.732;2022-10-16T14:32:33;23.30;99.90
14993;DHT22;7592;51.088;13.732;2022-10-16T14:37:35;23.20;99.90
14993;DHT22;7592;51.088;13.732;2022-10-16T14:42:28;23.10;99.90
14993;DHT22;7592;51.088;13.732;2022-10-16T14:47:29;22.90;99.90
14993;DHT22;7592;51.088;13.732;2022-10-16T14:52:23;22.80;99.90
14993;DHT22;7592;51.088;13.732;2022-10-16T14:57:27;22.60;99.90
14993;DHT22;7592;51.088;13.732;2022-10-16T15:02:35;22.50;99.90
14993;DHT22;7592;51.088;13.732;2022-10-16T15:07:49;22.30;99.90
14993;DHT22;7592;51.088;13.732;2022-10-16T15:12:47;22.10;99.90
14993;DHT22;7592;51.088;13.732;2022-10-16T15:17:43;21.90;99.90
14993;DHT22;7592;51.088;13.732;2022-10-16T15:22:38;21.70;99.90
14993;DHT22;7592;51.088;13.732;2022-10-16T15:27:31;21.50;99.90
14993;DHT22;7592;51.088;13.732;2022-10-16T15:32:36;21.30;99.90
14993;DHT22;7592;51.088;13.732;2022-10-16T15:37:31;21.10;99.90
14993;DHT22;7592;51.088;13.732;2022-10-16T15:42:25;21.00;99.90
14993;DHT22;7592;51.088;13.732;2022-10-16T15:47:20;20.70;99.90
14993;DHT22;7592;51.088;13.732;2022-10-16T15:52:14;20.40;99.90
14993;DHT22;7592;51.088;13.732;2022-10-16T15:57:11;20.20;99.90
14993;DHT22;7592;51.088;13.732;2022-10-16T16:02:07;19.90;99.90
14993;DHT22;7592;51.088;13.732;2022-10-16T16:07:06;19.80;99.90
14993;DHT22;7592;51.088;13.732;2022-10-16T16:12:00;19.60;99.90
14993;DHT22;7592;51.088;13.732;2022-10-16T16:16:59;19.50;99.90
14993;DHT22;7592;51.088;13.732;2022-10-16T16:21:55;19.20;99.90
14993;DHT22;7592;51.088;13.732;2022-10-16T16:26:49;19.20;99.90
14993;DHT22;7592;51.088;13.732;2022-10-16T16:31:42;19.10;99.90
14993;DHT22;7592;51.088;13.732;2022-10-16T16:36:37;18.90;99.90
14993;DHT22;7592;51.088;13.732;2022-10-16T16:41:31;18.70;99.90
14993;DHT22;7592;51.088;13.732;2022-10-16T16:46:24;18.50;99.90
14993;DHT22;7592;51.088;13.732;2022-10-16T16:51:22;18.40;99.90
14993;DHT22;7592;51.088;13.732;2022-10-16T16:56:16;18.30;99.90
14993;DHT22;7592;51.088;13.732;2022-10-16T17:01:14;18.10;99.90
14993;DHT22;7592;51.088;13.732;2022-10-16T17:06:15;18.00;99.90
14993;DHT22;7592;51.088;13.732;2022-10-16T17:11:22;17.90;99.90
14993;DHT22;7592;51.088;13.732;2022-10-16T17:16:16;17.70;99.90
14993;DHT22;7592;51.088;13.732;2022-10-16T17:21:25;17.60;99.90
14993;DHT22;7592;51.088;13.732;2022-10-16T17:26:22;17.50;99.90
14993;DHT22;7592;51.088;13.732;2022-10-16T17:31:19;17.40;99.90
14993;DHT22;7592;51.088;13.732;2022-10-16T17:36:15;17.40;99.90
14993;DHT22;7592;51.088;13.732;2022-10-16T17:41:22;17.30;99.90
14993;DHT22;7592;51.088;13.732;2022-10-16T17:46:34;17.10;99.90
14993;DHT22;7592;51.088;13.732;2022-10-16T17:51:32;17.00;99.90
14993;DHT22;7592;51.088;13.732;2022-10-16T17:56:26;17.00;99.90
14993;DHT22;7592;51.088;13.732;2022-10-16T18:01:39;16.90;99.90
14993;DHT22;7592;51.088;13.732;2022-10-16T18:06:39;16.90;99.90
14993;DHT22;7592;51.088;13.732;2022-10-16T18:11:38;16.80;99.90
14993;DHT22;7592;51.088;13.732;2022-10-16T18:16:32;16.70;99.90
14993;DHT22;7592;51.088;13.732;2022-10-16T18:21:34;16.70;99.90
14993;DHT22;7592;51.088;13.732;2022-10-16T18:26:37;16.70;99.90
14993;DHT22;7592;51.088;13.732;2022-10-16T18:31:35;16.70;99.90
14993;DHT22;7592;51.088;13.732;2022-10-16T18:36:39;16.70;99.90
14993;DHT22;7592;51.088;13.732;2022-10-16T18:41:51;16.80;99.90
14993;DHT22;7592;51.088;13.732;2022-10-16T18:46:58;16.90;99.90
14993;DHT22;7592;51.088;13.732;2022-10-16T18:52:02;16.90;99.90
14993;DHT22;7592;51.088;13.732;2022-10-16T18:57:43;16.80;99.90
14993;DHT22;7592;51.088;13.732;2022-10-16T19:02:42;16.60;99.90
14993;DHT22;7592;51.088;13.732;2022-10-16T19:07:39;16.50;99.90
14993;DHT22;7592;51.088;13.732;2022-10-16T19:18:39;16.30;99.90
14993;DHT22;7592;51.088;13.732;2022-10-16T19:41:15;16.50;99.90
14993;DHT22;7592;51.088;13.732;2022-10-16T19:51:58;16.50;99.90
14993;DHT22;7592;51.088;13.732;2022-10-16T19:57:43;16.60;99.90
14993;DHT22;7592;51.088;13.732;2022-10-16T20:03:21;16.60;99.90
14993;DHT22;7592;51.088;13.732;2022-10-16T20:08:53;16.70;99.90
14993;DHT22;7592;51.088;13.732;2022-10-16T20:14:14;16.80;99.90
14993;DHT22;7592;51.088;13.732;2022-10-16T20:31:31;16.90;99.90
14993;DHT22;7592;51.088;13.732;2022-10-16T20:36:53;16.80;99.90
14993;DHT22;7592;51.088;13.732;2022-10-16T20:41:46;16.80;99.90
14993;DHT22;7592;51.088;13.732;2022-10-16T20:46:50;16.70;99.90
14993;DHT22;7592;51.088;13.732;2022-10-16T20:51:47;16.60;99.90
14993;DHT22;7592;51.088;13.732;2022-10-16T20:56:47;16.60;99.90
14993;DHT22;7592;51.088;13.732;2022-10-16T21:01:42;16.50;99.90
14993;DHT22;7592;51.088;13.732;2022-10-16T21:06:37;16.40;99.90
14993;DHT22;7592;51.088;13.732;2022-10-16T21:11:34;16.20;99.90
14993;DHT22;7592;51.088;13.732;2022-10-16T21:16:28;15.90;99.90
14993;DHT22;7592;51.088;13.732;2022-10-16T21:21:30;15.70;99.90
14993;DHT22;7592;51.088;13.732;2022-10-16T21:26:53;15.60;99.90
14993;DHT22;7592;51.088;13.732;2022-10-16T21:31:46;15.50;99.90
14993;DHT22;7592;51.088;13.732;2022-10-16T21:36:47;15.30;99.90
14993;DHT22;7592;51.088;13.732;2022-10-16T21:41:41;15.20;99.90
14993;DHT22;7592;51.088;13.732;2022-10-16T21:46:38;15.10;99.90
14993;DHT22;7592;51.088;13.732;2022-10-16T21:51:34;15.00;99.90
14993;DHT22;7592;51.088;13.732;2022-10-16T21:56:27;14.90;99.90
14993;DHT22;7592;51.088;13.732;2022-10-16T22:01:22;14.80;99.90
14993;DHT22;7592;51.088;13.732;2022-10-16T22:06:17;14.70;99.90
14993;DHT22;7592;51.088;13.732;2022-10-16T22:11:25;14.60;99.90
14993;DHT22;7592;51.088;13.732;2022-10-16T22:16:24;14.60;99.90
14993;DHT22;7592;51.088;13.732;2022-10-16T22:21:17;14.50;99.90
14993;DHT22;7592;51.088;13.732;2022-10-16T22:26:12;14.50;99.90
14993;DHT22;7592;51.088;13.732;2022-10-16T22:31:07;14.50;99.90
14993;DHT22;7592;51.088;13.732;2022-10-16T22:36:05;14.40;99.90
14993;DHT22;7592;51.088;13.732;2022-10-16T22:41:02;14.30;99.90
14993;DHT22;7592;51.088;13.732;2022-10-16T22:46:04;14.30;99.90
14993;DHT22;7592;51.088;13.732;2022-10-16T22:51:01;14.20;99.90
14993;DHT22;7592;51.088;13.732;2022-10-16T22:55:57;14.20;99.90
14993;DHT22;7592;51.088;13.732;2022-10-16T23:05:50;14.10;99.90
14993;DHT22;7592;51.088;13.732;2022-10-16T23:10:45;14.00;99.90
14993;DHT22;7592;51.088;13.732;2022-10-16T23:15:39;14.10;99.90
14993;DHT22;7592;51.088;13.732;2022-10-16T23:20:32;14.00;99.90
14993;DHT22;7592;51.088;13.732;2022-10-16T23:25:24;14.10;99.90
14993;DHT22;7592;51.088;13.732;2022-10-16T23:30:17;14.10;99.90
14993;DHT22;7592;51.088;13.732;2022-10-16T23:35:09;14.10;99.90
14993;DHT22;7592;51.088;13.732;2022-10-16T23:40:02;14.10;99.90
14993;DHT22;7592;51.088;13.732;2022-10-16T23:44:55;14.10;99.90
14993;DHT22;7592;51.088;13.732;2022-10-16T23:49:47;14.00;99.90
14993;DHT22;7592;51.088;13.732;2022-10-16T23:54:40;14.00;99.90
14993;DHT22;7592;51.088;13.732;2022-10-16T23:59:33;13.90;99.90
